SCO17GH EGPH-EGBB
Flight info
| Callsign | SCO17GH |
|---|---|
| Flight time | N/A |
| Altitude | 29000 |
| Route | GOSAM P600 FENIK L612 NAVSO DCT AKOMU DCT VAMEB UL612 CROFT |
| Aircraft | E195/M-SDE3GILORVW/S |
Departure
| Time | 2026-05-06 20:32 |
|---|---|
| Airport | Edinburgh Airport (EGPH) |
Arrival
| Time | N/A |
|---|---|
| Airport | Birmingham Airport (EGBB) |
| Time | Latitude | Longitude | Altitude | Speed | Heading |
|---|---|---|---|---|---|
| 2026-05-06 20:13 | 55.94849 | -3.35872 | 115 ft | 0 kts | 208° |
| 2026-05-06 20:21 | 55.94851 | -3.35869 | 115 ft | 2 kts | 208° |
| 2026-05-06 20:21 | 55.94865 | -3.35855 | 113 ft | 2 kts | 213° |
| 2026-05-06 20:22 | 55.94879 | -3.35839 | 112 ft | 2 kts | 217° |
| 2026-05-06 20:22 | 55.94891 | -3.35820 | 113 ft | 2 kts | 225° |
| 2026-05-06 20:22 | 55.94901 | -3.35798 | 113 ft | 2 kts | 249° |
| 2026-05-06 20:22 | 55.94904 | -3.35769 | 112 ft | 2 kts | 287° |
| 2026-05-06 20:23 | 55.94900 | -3.35751 | 113 ft | 1 kts | 297° |
| 2026-05-06 20:23 | 55.94899 | -3.35749 | 113 ft | 0 kts | 297° |
| 2026-05-06 20:25 | 55.94902 | -3.35757 | 113 ft | 2 kts | 297° |
| 2026-05-06 20:25 | 55.94911 | -3.35789 | 111 ft | 4 kts | 297° |
| 2026-05-06 20:25 | 55.94930 | -3.35838 | 112 ft | 5 kts | 318° |
| 2026-05-06 20:25 | 55.94962 | -3.35858 | 114 ft | 5 kts | 353° |
| 2026-05-06 20:26 | 55.94995 | -3.35845 | 112 ft | 5 kts | 22° |
| 2026-05-06 20:26 | 55.95034 | -3.35831 | 115 ft | 6 kts | 350° |
| 2026-05-06 20:26 | 55.95058 | -3.35878 | 113 ft | 5 kts | 299° |
| 2026-05-06 20:26 | 55.95079 | -3.35947 | 114 ft | 8 kts | 298° |
| 2026-05-06 20:27 | 55.95101 | -3.36042 | 114 ft | 9 kts | 289° |
| 2026-05-06 20:27 | 55.95123 | -3.36162 | 114 ft | 11 kts | 288° |
| 2026-05-06 20:27 | 55.95126 | -3.36302 | 112 ft | 12 kts | 245° |
| 2026-05-06 20:27 | 55.95086 | -3.36426 | 114 ft | 12 kts | 239° |
| 2026-05-06 20:28 | 55.95039 | -3.36564 | 115 ft | 13 kts | 238° |
| 2026-05-06 20:28 | 55.94987 | -3.36716 | 114 ft | 15 kts | 238° |
| 2026-05-06 20:28 | 55.94929 | -3.36888 | 114 ft | 17 kts | 239° |
| 2026-05-06 20:28 | 55.94864 | -3.37078 | 113 ft | 19 kts | 238° |
| 2026-05-06 20:29 | 55.94794 | -3.37282 | 114 ft | 20 kts | 238° |
| 2026-05-06 20:29 | 55.94719 | -3.37502 | 113 ft | 21 kts | 238° |
| 2026-05-06 20:29 | 55.94640 | -3.37735 | 114 ft | 22 kts | 239° |
| 2026-05-06 20:29 | 55.94556 | -3.37980 | 113 ft | 24 kts | 238° |
| 2026-05-06 20:30 | 55.94470 | -3.38237 | 114 ft | 25 kts | 239° |
| 2026-05-06 20:30 | 55.94296 | -3.38752 | 114 ft | 16 kts | 239° |
| 2026-05-06 20:30 | 55.94297 | -3.38870 | 112 ft | 10 kts | 311° |
| 2026-05-06 20:31 | 55.94360 | -3.38942 | 114 ft | 12 kts | 329° |
| 2026-05-06 20:31 | 55.94411 | -3.38959 | 113 ft | 11 kts | 26° |
| 2026-05-06 20:31 | 55.94452 | -3.38864 | 113 ft | 10 kts | 59° |
| 2026-05-06 20:31 | 55.94708 | -3.38104 | 112 ft | 102 kts | 58° |
| 2026-05-06 20:32 | 55.95161 | -3.36679 | 224 ft | 152 kts | 63° |
| 2026-05-06 20:32 | 55.95530 | -3.35565 | 658 ft | 163 kts | 63° |
| 2026-05-06 20:32 | 55.96217 | -3.33831 | 1484 ft | 177 kts | 49° |
| 2026-05-06 20:32 | 55.97190 | -3.32363 | 1935 ft | 197 kts | 41° |
| 2026-05-06 20:33 | 55.98318 | -3.30772 | 2397 ft | 212 kts | 36° |
| 2026-05-06 20:33 | 55.99733 | -3.30012 | 3032 ft | 224 kts | 358° |
| 2026-05-06 20:33 | 56.01257 | -3.30930 | 3376 ft | 243 kts | 321° |
| 2026-05-06 20:33 | 56.02283 | -3.33343 | 3870 ft | 252 kts | 287° |
| 2026-05-06 20:34 | 56.02408 | -3.36451 | 4473 ft | 254 kts | 254° |
| 2026-05-06 20:34 | 56.01592 | -3.39256 | 4882 ft | 268 kts | 232° |
| 2026-05-06 20:34 | 56.00514 | -3.42304 | 4393 ft | 314 kts | 246° |
| 2026-05-06 20:34 | 56.00151 | -3.46125 | 4556 ft | 303 kts | 266° |
| 2026-05-06 20:35 | 56.00142 | -3.49828 | 5267 ft | 292 kts | 268° |
| 2026-05-06 20:35 | 56.00131 | -3.53375 | 6407 ft | 278 kts | 266° |
| 2026-05-06 20:35 | 55.99891 | -3.56714 | 7342 ft | 267 kts | 256° |
| 2026-05-06 20:35 | 55.99453 | -3.59941 | 8021 ft | 268 kts | 256° |
| 2026-05-06 20:36 | 55.99011 | -3.63180 | 8644 ft | 269 kts | 255° |
| 2026-05-06 20:36 | 55.98547 | -3.66427 | 9306 ft | 271 kts | 255° |
| 2026-05-06 20:36 | 55.98077 | -3.69693 | 9984 ft | 273 kts | 255° |
| 2026-05-06 20:36 | 55.97592 | -3.73049 | 10329 ft | 287 kts | 255° |
| 2026-05-06 20:37 | 55.97086 | -3.76567 | 10714 ft | 297 kts | 255° |
| 2026-05-06 20:37 | 55.96564 | -3.80163 | 11323 ft | 300 kts | 255° |
| 2026-05-06 20:37 | 55.96042 | -3.83780 | 11947 ft | 302 kts | 255° |
| 2026-05-06 20:37 | 55.95512 | -3.87415 | 12574 ft | 304 kts | 255° |
| 2026-05-06 20:38 | 55.94940 | -3.91061 | 13218 ft | 307 kts | 252° |
| 2026-05-06 20:38 | 55.94197 | -3.94657 | 13849 ft | 309 kts | 248° |
| 2026-05-06 20:38 | 55.93319 | -3.98173 | 14468 ft | 311 kts | 243° |
| 2026-05-06 20:38 | 55.92110 | -4.01382 | 15057 ft | 314 kts | 233° |
| 2026-05-06 20:39 | 55.90648 | -4.04290 | 15634 ft | 317 kts | 227° |
| 2026-05-06 20:39 | 55.89047 | -4.07029 | 16212 ft | 321 kts | 225° |
| 2026-05-06 20:39 | 55.87368 | -4.09673 | 16802 ft | 324 kts | 221° |
| 2026-05-06 20:39 | 55.85515 | -4.12006 | 17401 ft | 328 kts | 217° |
| 2026-05-06 20:40 | 55.83631 | -4.14341 | 18012 ft | 331 kts | 217° |
| 2026-05-06 20:40 | 55.81728 | -4.16675 | 18592 ft | 334 kts | 219° |
| 2026-05-06 20:40 | 55.79827 | -4.18974 | 19136 ft | 337 kts | 215° |
| 2026-05-06 20:40 | 55.77870 | -4.21298 | 19686 ft | 339 kts | 219° |
| 2026-05-06 20:41 | 55.75927 | -4.23712 | 20250 ft | 342 kts | 218° |
| 2026-05-06 20:41 | 55.73939 | -4.26055 | 20782 ft | 347 kts | 213° |
| 2026-05-06 20:41 | 55.71617 | -4.27417 | 21279 ft | 361 kts | 191° |
| 2026-05-06 20:41 | 55.69074 | -4.27034 | 21706 ft | 378 kts | 168° |
| 2026-05-06 20:42 | 55.66664 | -4.24997 | 22188 ft | 389 kts | 152° |
| 2026-05-06 20:42 | 55.64385 | -4.22393 | 22658 ft | 393 kts | 150° |
| 2026-05-06 20:42 | 55.62032 | -4.19898 | 23124 ft | 395 kts | 155° |
| 2026-05-06 20:42 | 55.59620 | -4.17494 | 23614 ft | 399 kts | 155° |
| 2026-05-06 20:43 | 55.57183 | -4.15110 | 24036 ft | 402 kts | 155° |
| 2026-05-06 20:43 | 55.54727 | -4.12710 | 24475 ft | 405 kts | 155° |
| 2026-05-06 20:43 | 55.52249 | -4.10301 | 24901 ft | 408 kts | 155° |
| 2026-05-06 20:43 | 55.49756 | -4.07871 | 25314 ft | 411 kts | 155° |
| 2026-05-06 20:44 | 55.47239 | -4.05427 | 25714 ft | 414 kts | 155° |
| 2026-05-06 20:44 | 55.44715 | -4.02979 | 26069 ft | 417 kts | 154° |
| 2026-05-06 20:44 | 55.42162 | -4.00507 | 26444 ft | 419 kts | 154° |
| 2026-05-06 20:44 | 55.39600 | -3.98022 | 26812 ft | 422 kts | 154° |
| 2026-05-06 20:45 | 55.37029 | -3.95536 | 27162 ft | 424 kts | 154° |
| 2026-05-06 20:45 | 55.34429 | -3.93030 | 27504 ft | 427 kts | 154° |
| 2026-05-06 20:45 | 55.31820 | -3.90513 | 27831 ft | 429 kts | 154° |
| 2026-05-06 20:45 | 55.29195 | -3.87991 | 28140 ft | 431 kts | 154° |
| 2026-05-06 20:46 | 55.26556 | -3.85451 | 28441 ft | 434 kts | 154° |
| 2026-05-06 20:46 | 55.23908 | -3.82852 | 28677 ft | 437 kts | 153° |
| 2026-05-06 20:46 | 55.21209 | -3.80456 | 28887 ft | 428 kts | 156° |
| 2026-05-06 20:46 | 55.18647 | -3.78206 | 28937 ft | 415 kts | 156° |
| 2026-05-06 20:47 | 55.15990 | -3.75925 | 28992 ft | 424 kts | 156° |
| 2026-05-06 20:47 | 55.10562 | -3.71262 | 29040 ft | 444 kts | 156° |
| 2026-05-06 20:48 | 55.04899 | -3.66413 | 29045 ft | 462 kts | 156° |
| 2026-05-06 20:48 | 54.99059 | -3.61429 | 29042 ft | 478 kts | 156° |
| 2026-05-06 20:49 | 54.93047 | -3.56320 | 29013 ft | 480 kts | 155° |
| 2026-05-06 20:49 | 54.87052 | -3.51235 | 29024 ft | 479 kts | 155° |
| 2026-05-06 20:50 | 54.81077 | -3.46185 | 29022 ft | 479 kts | 155° |
| 2026-05-06 20:50 | 54.75082 | -3.41133 | 29021 ft | 479 kts | 155° |
| 2026-05-06 20:51 | 54.69042 | -3.36062 | 29010 ft | 478 kts | 155° |
| 2026-05-06 20:51 | 54.63101 | -3.31088 | 29027 ft | 478 kts | 155° |
| 2026-05-06 20:52 | 54.57113 | -3.26096 | 29017 ft | 478 kts | 155° |
| 2026-05-06 20:52 | 54.51114 | -3.21110 | 29032 ft | 479 kts | 154° |
| 2026-05-06 20:53 | 54.45102 | -3.16122 | 29009 ft | 479 kts | 154° |
| 2026-05-06 20:53 | 54.39109 | -3.11173 | 29024 ft | 478 kts | 154° |
| 2026-05-06 20:54 | 54.33115 | -3.06241 | 29015 ft | 478 kts | 154° |
| 2026-05-06 20:54 | 54.27119 | -3.01323 | 29018 ft | 478 kts | 154° |
| 2026-05-06 20:55 | 54.21107 | -2.96405 | 29019 ft | 478 kts | 154° |
| 2026-05-06 20:55 | 54.15095 | -2.91701 | 29018 ft | 476 kts | 156° |
| 2026-05-06 20:56 | 54.09012 | -2.87227 | 29009 ft | 476 kts | 156° |
| 2026-05-06 20:56 | 54.02915 | -2.82799 | 29017 ft | 476 kts | 157° |
| 2026-05-06 20:57 | 53.96827 | -2.78385 | 29016 ft | 476 kts | 157° |
| 2026-05-06 20:57 | 53.90752 | -2.73992 | 29033 ft | 474 kts | 157° |
| 2026-05-06 20:58 | 53.84684 | -2.69620 | 29019 ft | 474 kts | 157° |
| 2026-05-06 20:58 | 53.78606 | -2.65253 | 29035 ft | 474 kts | 157° |
| 2026-05-06 20:59 | 53.72555 | -2.60917 | 29031 ft | 474 kts | 157° |
| 2026-05-06 20:59 | 53.66487 | -2.56583 | 29027 ft | 473 kts | 157° |
| 2026-05-06 20:59 | 53.63484 | -2.54332 | 28804 ft | 474 kts | 155° |
| 2026-05-06 21:00 | 53.60607 | -2.51687 | 28243 ft | 467 kts | 148° |
| 2026-05-06 21:00 | 53.57842 | -2.48890 | 27691 ft | 461 kts | 149° |
| 2026-05-06 21:00 | 53.55118 | -2.46087 | 27169 ft | 457 kts | 148° |
| 2026-05-06 21:00 | 53.52416 | -2.43323 | 26649 ft | 453 kts | 149° |
| 2026-05-06 21:01 | 53.49739 | -2.40564 | 26141 ft | 449 kts | 149° |
| 2026-05-06 21:01 | 53.47086 | -2.37851 | 25638 ft | 445 kts | 149° |
| 2026-05-06 21:01 | 53.44460 | -2.35158 | 25144 ft | 441 kts | 149° |
| 2026-05-06 21:01 | 53.41847 | -2.32492 | 24660 ft | 437 kts | 149° |
| 2026-05-06 21:02 | 53.39274 | -2.29864 | 24184 ft | 428 kts | 149° |
| 2026-05-06 21:02 | 53.36783 | -2.27264 | 23706 ft | 416 kts | 150° |
| 2026-05-06 21:02 | 53.34290 | -2.24942 | 23146 ft | 405 kts | 152° |
| 2026-05-06 21:02 | 53.31863 | -2.22657 | 22579 ft | 395 kts | 152° |
| 2026-05-06 21:03 | 53.29482 | -2.20462 | 22027 ft | 387 kts | 152° |
| 2026-05-06 21:03 | 53.27183 | -2.18337 | 21491 ft | 379 kts | 153° |
| 2026-05-06 21:03 | 53.24866 | -2.16201 | 20992 ft | 371 kts | 153° |
| 2026-05-06 21:03 | 53.22899 | -2.14390 | 20571 ft | 364 kts | 153° |
| 2026-05-06 21:04 | 53.20700 | -2.12368 | 20112 ft | 357 kts | 153° |
| 2026-05-06 21:04 | 53.18547 | -2.10386 | 19664 ft | 351 kts | 153° |
| 2026-05-06 21:04 | 53.16423 | -2.08436 | 19220 ft | 346 kts | 153° |
| 2026-05-06 21:04 | 53.14335 | -2.06520 | 18826 ft | 339 kts | 153° |
| 2026-05-06 21:05 | 53.12288 | -2.04644 | 18458 ft | 333 kts | 153° |
| 2026-05-06 21:05 | 53.10279 | -2.02807 | 18058 ft | 327 kts | 153° |
| 2026-05-06 21:05 | 53.08297 | -2.00997 | 17644 ft | 322 kts | 153° |
| 2026-05-06 21:05 | 53.06282 | -1.99463 | 17230 ft | 315 kts | 162° |
| 2026-05-06 21:06 | 53.04204 | -1.98393 | 16827 ft | 310 kts | 168° |
| 2026-05-06 21:06 | 53.02116 | -1.97597 | 16431 ft | 307 kts | 171° |
| 2026-05-06 21:06 | 53.00025 | -1.96914 | 15972 ft | 307 kts | 172° |
| 2026-05-06 21:06 | 52.97906 | -1.96510 | 15474 ft | 306 kts | 177° |
| 2026-05-06 21:07 | 52.95783 | -1.96202 | 14980 ft | 306 kts | 177° |
| 2026-05-06 21:07 | 52.93661 | -1.95914 | 14490 ft | 306 kts | 177° |
| 2026-05-06 21:07 | 52.91535 | -1.95641 | 14008 ft | 306 kts | 178° |
| 2026-05-06 21:07 | 52.89412 | -1.95365 | 13491 ft | 306 kts | 177° |
| 2026-05-06 21:08 | 52.87286 | -1.95088 | 12961 ft | 306 kts | 177° |
| 2026-05-06 21:08 | 52.85167 | -1.94815 | 12435 ft | 305 kts | 177° |
| 2026-05-06 21:08 | 52.83051 | -1.94537 | 11921 ft | 305 kts | 177° |
| 2026-05-06 21:08 | 52.80943 | -1.94265 | 11416 ft | 304 kts | 177° |
| 2026-05-06 21:09 | 52.78839 | -1.93988 | 10921 ft | 303 kts | 177° |
| 2026-05-06 21:09 | 52.76739 | -1.93717 | 10430 ft | 302 kts | 177° |
| 2026-05-06 21:09 | 52.74688 | -1.93448 | 9844 ft | 287 kts | 177° |
| 2026-05-06 21:09 | 52.72738 | -1.93198 | 9126 ft | 276 kts | 177° |
| 2026-05-06 21:10 | 52.70859 | -1.92964 | 8438 ft | 267 kts | 177° |
| 2026-05-06 21:10 | 52.69026 | -1.92744 | 7764 ft | 261 kts | 177° |
| 2026-05-06 21:10 | 52.67230 | -1.92532 | 7117 ft | 256 kts | 177° |
| 2026-05-06 21:10 | 52.65469 | -1.92328 | 6484 ft | 251 kts | 177° |
| 2026-05-06 21:11 | 52.63761 | -1.92134 | 5876 ft | 240 kts | 177° |
| 2026-05-06 21:11 | 52.62124 | -1.91947 | 5261 ft | 236 kts | 176° |
| 2026-05-06 21:11 | 52.60493 | -1.91500 | 4674 ft | 240 kts | 158° |
| 2026-05-06 21:11 | 52.59082 | -1.90149 | 4305 ft | 233 kts | 142° |
| 2026-05-06 21:12 | 52.57777 | -1.88602 | 3926 ft | 230 kts | 145° |
| 2026-05-06 21:12 | 52.56436 | -1.87202 | 3516 ft | 227 kts | 145° |
| 2026-05-06 21:12 | 52.55144 | -1.85731 | 3103 ft | 225 kts | 143° |
| 2026-05-06 21:12 | 52.53865 | -1.84282 | 2686 ft | 223 kts | 144° |
| 2026-05-06 21:13 | 52.52584 | -1.82869 | 2290 ft | 221 kts | 143° |
| 2026-05-06 21:13 | 52.51328 | -1.81453 | 1878 ft | 218 kts | 143° |
| 2026-05-06 21:13 | 52.50080 | -1.80053 | 1460 ft | 216 kts | 143° |
| 2026-05-06 21:13 | 52.48852 | -1.78688 | 1183 ft | 207 kts | 144° |
| 2026-05-06 21:14 | 52.47753 | -1.77459 | 1428 ft | 175 kts | 143° |
| 2026-05-06 21:14 | 52.46796 | -1.76384 | 1386 ft | 169 kts | 142° |
| 2026-05-06 21:14 | 52.45721 | -1.75184 | 1079 ft | 196 kts | 144° |
| 2026-05-06 21:14 | 52.44580 | -1.73903 | 771 ft | 199 kts | 143° |
| 2026-05-06 21:15 | 52.43482 | -1.72642 | 976 ft | 188 kts | 144° |
| 2026-05-06 21:15 | 52.42393 | -1.71435 | 1354 ft | 192 kts | 144° |
| 2026-05-06 21:15 | 52.41115 | -1.70690 | 1740 ft | 205 kts | 179° |
| 2026-05-06 21:15 | 52.39798 | -1.71482 | 2256 ft | 207 kts | 220° |
| 2026-05-06 21:16 | 52.38855 | -1.73233 | 2798 ft | 205 kts | 233° |
| 2026-05-06 21:16 | 52.38252 | -1.75402 | 2948 ft | 220 kts | 266° |
| 2026-05-06 21:16 | 52.38568 | -1.77867 | 3035 ft | 229 kts | 303° |
| 2026-05-06 21:16 | 52.39652 | -1.79733 | 3062 ft | 226 kts | 323° |